createdAt,value
2019-05-12T00:04:25.132Z,4.67
2019-05-12T00:09:28.105Z,4.56
2019-05-12T00:14:28.284Z,4.51
2019-05-12T00:19:25.766Z,4.39
2019-05-12T00:24:27.949Z,4.33
2019-05-12T00:29:25.747Z,4.21
2019-05-12T00:34:25.005Z,4.18
2019-05-12T00:39:27.889Z,4.38
2019-05-12T00:44:25.724Z,4.63
2019-05-12T00:49:25.736Z,4.86
2019-05-12T00:54:25.779Z,5.06
2019-05-12T00:59:27.822Z,5.23
2019-05-12T01:04:25.745Z,5.37
2019-05-12T01:09:24.750Z,5.50
2019-05-12T01:14:24.830Z,5.59
2019-05-12T01:19:23.961Z,5.63
2019-05-12T01:24:22.986Z,5.57
2019-05-12T01:29:22.770Z,5.43
2019-05-12T01:34:22.974Z,5.30
2019-05-12T01:39:22.794Z,5.27
2019-05-12T01:44:22.920Z,5.30
2019-05-12T01:49:22.814Z,5.32
2019-05-12T01:54:21.938Z,5.34
2019-05-12T01:59:20.788Z,5.39
2019-05-12T02:04:20.077Z,5.52
2019-05-12T02:09:20.816Z,5.62
2019-05-12T02:14:22.394Z,5.66
2019-05-12T02:19:21.912Z,5.60
2019-05-12T02:24:26.744Z,5.54
2019-05-12T02:29:21.908Z,5.54
2019-05-12T02:34:25.110Z,5.49
2019-05-12T02:39:24.612Z,5.47
2019-05-12T02:44:20.766Z,5.47
2019-05-12T02:49:20.824Z,5.49
2019-05-12T02:54:20.735Z,5.56
2019-05-12T02:59:20.721Z,5.59
2019-05-12T03:04:20.057Z,5.55
2019-05-12T03:09:19.766Z,5.43
2019-05-12T03:14:20.848Z,5.34
2019-05-12T03:19:20.775Z,5.23
2019-05-12T03:24:24.728Z,5.11
2019-05-12T03:29:24.871Z,5.00
2019-05-12T03:34:21.987Z,4.86
2019-05-12T03:39:20.788Z,4.84
2019-05-12T03:44:19.980Z,4.83
2019-05-12T03:49:19.031Z,4.80
2019-05-12T03:54:19.851Z,4.74
2019-05-12T03:59:18.857Z,4.72
2019-05-12T04:04:17.803Z,4.69
2019-05-12T04:09:17.774Z,4.68
2019-05-12T04:14:17.785Z,4.73
2019-05-12T04:19:17.777Z,4.82
2019-05-12T04:24:16.808Z,4.85
2019-05-12T04:29:18.845Z,4.96
2019-05-12T04:34:19.213Z,5.12
2019-05-12T04:39:16.806Z,5.40
2019-05-12T04:44:16.842Z,5.60
2019-05-12T04:49:16.227Z,5.73
2019-05-12T04:54:15.806Z,5.88
2019-05-12T04:59:16.055Z,6.05
2019-05-12T05:04:15.649Z,6.19
2019-05-12T05:09:14.603Z,6.37
2019-05-12T05:14:14.448Z,6.52
2019-05-12T05:19:13.868Z,6.63
2019-05-12T05:24:14.225Z,6.76
2019-05-12T05:29:13.568Z,6.86
2019-05-12T05:34:14.906Z,6.99
2019-05-12T05:39:14.067Z,7.09
2019-05-12T05:44:14.027Z,7.22
2019-05-12T05:49:13.916Z,7.37
2019-05-12T05:54:13.751Z,7.48
2019-05-12T05:59:14.938Z,7.59
2019-05-12T06:04:10.821Z,7.70
2019-05-12T06:09:10.232Z,7.84
2019-05-12T06:14:12.789Z,7.96
2019-05-12T06:19:08.996Z,8.09
2019-05-12T06:24:13.852Z,8.26
2019-05-12T06:29:11.194Z,8.44
2019-05-12T06:34:15.479Z,8.48
2019-05-12T06:39:10.523Z,8.45
2019-05-12T06:44:08.905Z,8.50
2019-05-12T06:49:12.912Z,8.59
2019-05-12T06:54:11.812Z,8.74
2019-05-12T06:59:10.505Z,8.90
2019-05-12T07:04:09.588Z,9.05
2019-05-12T07:09:09.518Z,9.30
2019-05-12T07:14:13.042Z,9.39
2019-05-12T07:19:07.629Z,9.59
2019-05-12T07:24:06.712Z,9.53
2019-05-12T07:29:04.443Z,9.44
2019-05-12T07:34:07.184Z,9.40
2019-05-12T07:39:04.199Z,9.57
2019-05-12T07:44:03.587Z,9.78
2019-05-12T07:54:04.176Z,10.36
2019-05-12T07:59:04.448Z,10.72
2019-05-12T08:04:04.510Z,10.26
2019-05-12T08:09:04.149Z,10.08
2019-05-12T08:14:03.695Z,10.14
2019-05-12T08:19:03.912Z,10.06
2019-05-12T08:24:03.795Z,9.94
2019-05-12T08:29:04.160Z,9.83
2019-05-12T08:34:04.189Z,10.04
2019-05-12T08:39:05.877Z,10.47
2019-05-12T08:44:04.445Z,10.68
2019-05-12T08:49:03.030Z,10.89
2019-05-12T08:54:03.167Z,11.36
2019-05-12T08:59:01.123Z,11.32
2019-05-12T09:04:06.456Z,11.26
2019-05-12T09:09:03.357Z,11.45
2019-05-12T09:14:01.118Z,11.66
2019-05-12T09:19:01.108Z,11.99
2019-05-12T09:29:03.312Z,11.81
2019-05-12T09:34:05.930Z,11.86
2019-05-12T09:39:02.070Z,12.05
2019-05-12T09:44:01.785Z,12.00
2019-05-12T09:49:01.071Z,12.11
2019-05-12T09:54:01.121Z,11.98
2019-05-12T09:59:02.864Z,12.03
2019-05-12T10:04:00.474Z,11.99
2019-05-12T10:09:03.306Z,12.13
2019-05-12T10:14:05.132Z,12.21
2019-05-12T10:18:59.116Z,11.98
2019-05-12T10:24:01.772Z,11.86
2019-05-12T10:29:13.344Z,12.25
2019-05-12T10:33:59.168Z,12.43
2019-05-12T10:38:58.067Z,12.21
2019-05-12T10:43:57.839Z,12.27
2019-05-12T10:48:56.489Z,12.50
2019-05-12T10:54:00.168Z,12.70
2019-05-12T10:58:55.086Z,12.85
2019-05-12T11:03:56.156Z,12.90
2019-05-12T11:08:56.104Z,13.25
2019-05-12T11:13:56.063Z,13.42
2019-05-12T11:19:00.361Z,13.33
2019-05-12T11:23:56.045Z,13.42
2019-05-12T11:28:56.066Z,13.33
2019-05-12T11:33:56.075Z,13.43
2019-05-12T11:38:56.058Z,14.04
2019-05-12T11:43:56.181Z,14.27
2019-05-12T11:48:55.228Z,14.22
2019-05-12T11:53:54.524Z,14.14
2019-05-12T11:58:54.409Z,14.00
2019-05-12T12:03:54.685Z,13.61
2019-05-12T12:08:55.059Z,13.98
2019-05-12T12:13:54.148Z,13.79
2019-05-12T12:19:02.319Z,13.70
2019-05-12T12:23:53.433Z,13.98
2019-05-12T12:28:51.362Z,14.24
2019-05-12T12:33:50.601Z,14.04
2019-05-12T12:38:50.042Z,13.37
2019-05-12T12:43:50.045Z,13.62
2019-05-12T12:48:49.320Z,13.97
2019-05-12T12:53:49.131Z,14.28
2019-05-12T12:58:48.162Z,14.37
2019-05-12T13:03:48.059Z,14.38
2019-05-12T13:08:48.091Z,14.55
2019-05-12T13:13:47.166Z,14.41
2019-05-12T13:18:46.480Z,14.57
2019-05-12T13:23:46.153Z,14.94
2019-05-12T13:28:53.006Z,14.96
2019-05-12T13:33:44.338Z,14.87
2019-05-12T13:38:44.345Z,14.96
2019-05-12T13:43:43.372Z,15.30
2019-05-12T13:48:43.420Z,15.41
2019-05-12T13:53:46.392Z,15.26
2019-05-12T13:58:45.754Z,15.03
2019-05-12T14:03:48.661Z,14.86
2019-05-12T14:08:44.553Z,15.02
2019-05-12T14:13:43.070Z,15.43
2019-05-12T14:18:44.215Z,15.13
2019-05-12T14:23:43.714Z,14.82
2019-05-12T14:28:45.629Z,14.39
2019-05-12T14:33:44.222Z,14.16
2019-05-12T14:38:42.090Z,13.95
2019-05-12T14:43:45.562Z,13.73
2019-05-12T14:48:45.580Z,13.72
2019-05-12T14:53:41.102Z,13.99
2019-05-12T14:58:40.314Z,13.98
2019-05-12T15:03:42.399Z,14.02
2019-05-12T15:08:40.331Z,14.03
2019-05-12T15:13:40.083Z,13.97
2019-05-12T15:18:46.785Z,13.84
2019-05-12T15:23:41.023Z,13.61
2019-05-12T15:28:39.976Z,13.47
2019-05-12T15:33:39.931Z,13.34
2019-05-12T15:38:38.285Z,13.19
2019-05-12T15:43:43.346Z,13.12
2019-05-12T15:48:37.243Z,13.18
2019-05-12T15:53:37.071Z,13.26
2019-05-12T15:58:36.284Z,13.26
2019-05-12T16:03:36.098Z,13.18
2019-05-12T16:08:35.157Z,13.09
2019-05-12T16:13:35.048Z,13.04
2019-05-12T16:18:34.560Z,12.96
2019-05-12T16:23:34.262Z,12.97
2019-05-12T16:28:33.640Z,13.03
2019-05-12T16:33:33.414Z,13.03
2019-05-12T16:38:31.283Z,13.04
2019-05-12T16:43:35.140Z,13.02
2019-05-12T16:48:33.936Z,13.01
2019-05-12T16:53:33.944Z,13.35
2019-05-12T16:58:35.168Z,13.81
2019-05-12T17:03:31.068Z,13.87
2019-05-12T17:08:31.020Z,13.91
2019-05-12T17:13:31.029Z,13.87
2019-05-12T17:18:33.895Z,13.81
2019-05-12T17:23:32.024Z,13.75
2019-05-12T17:28:34.285Z,13.68
2019-05-12T17:33:33.902Z,13.53
2019-05-12T17:38:34.081Z,13.41
2019-05-12T17:43:30.987Z,13.29
2019-05-12T17:48:30.174Z,13.16
2019-05-12T17:53:30.565Z,13.09
2019-05-12T18:03:30.040Z,12.98
2019-05-12T18:08:32.979Z,12.81
2019-05-12T18:13:28.298Z,12.63
2019-05-12T18:18:32.793Z,12.46
2019-05-12T18:23:30.386Z,12.32
2019-05-12T18:28:29.523Z,12.14
2019-05-12T18:33:33.849Z,11.97
2019-05-12T18:38:28.031Z,11.83
2019-05-12T18:43:29.081Z,11.76
2019-05-12T18:48:28.999Z,11.69
2019-05-12T18:53:31.934Z,11.60
2019-05-12T18:58:31.128Z,11.59
2019-05-12T19:03:27.159Z,11.52
2019-05-12T19:08:26.256Z,11.43
2019-05-12T19:13:25.347Z,11.17
2019-05-12T19:18:32.345Z,10.90
2019-05-12T19:23:26.905Z,10.66
2019-05-12T19:28:25.994Z,10.50
2019-05-12T19:33:27.000Z,10.45
2019-05-12T19:38:26.566Z,10.37
2019-05-12T19:43:26.059Z,10.35
2019-05-12T19:48:27.583Z,10.45
2019-05-12T19:53:25.031Z,10.53
2019-05-12T19:58:25.098Z,10.50
2019-05-12T20:03:25.102Z,10.49
2019-05-12T20:08:26.019Z,10.38
2019-05-12T20:13:29.666Z,10.24
2019-05-12T20:18:24.729Z,10.04
2019-05-12T20:23:24.666Z,9.81
2019-05-12T20:28:24.446Z,9.68
2019-05-12T20:33:24.044Z,9.61
2019-05-12T20:38:25.428Z,9.63
2019-05-12T20:43:24.106Z,9.69
2019-05-12T20:48:26.481Z,9.71
2019-05-12T20:53:24.783Z,9.73
2019-05-12T20:58:21.090Z,9.64
2019-05-12T21:03:20.114Z,9.57
2019-05-12T21:08:20.003Z,9.47
2019-05-12T21:13:20.312Z,9.39
2019-05-12T21:18:19.077Z,9.32
2019-05-12T21:23:18.105Z,9.17
2019-05-12T21:28:16.976Z,9.10
2019-05-12T21:33:17.124Z,8.98
2019-05-12T21:38:19.040Z,8.94
2019-05-12T21:43:17.077Z,8.81
2019-05-12T21:48:23.616Z,8.68
2019-05-12T21:53:20.537Z,8.66
2019-05-12T21:58:16.977Z,8.76
2019-05-12T22:03:17.100Z,8.75
2019-05-12T22:08:20.826Z,8.62
2019-05-12T22:13:18.081Z,8.55
2019-05-12T22:18:16.046Z,8.41
2019-05-12T22:23:16.004Z,8.24
2019-05-12T22:28:16.046Z,8.03
2019-05-12T22:33:16.030Z,7.90
2019-05-12T22:38:19.530Z,7.95
2019-05-12T22:43:16.087Z,7.89
2019-05-12T22:48:16.052Z,7.87
2019-05-12T22:53:19.307Z,7.81
2019-05-12T22:58:18.251Z,7.73
2019-05-12T23:03:15.166Z,7.55
2019-05-12T23:08:14.275Z,7.54
2019-05-12T23:13:14.038Z,7.37
2019-05-12T23:18:14.201Z,7.18
2019-05-12T23:23:15.384Z,6.96
2019-05-12T23:28:12.998Z,6.87
2019-05-12T23:33:14.294Z,6.70
2019-05-12T23:38:16.765Z,6.65
2019-05-12T23:43:14.626Z,6.67
2019-05-12T23:48:14.453Z,6.58
2019-05-12T23:53:14.204Z,6.28
2019-05-12T23:58:14.503Z,6.03
